createdAt,value
2019-02-17T00:02:26.121Z,5.37
2019-02-17T00:04:57.726Z,5.34
2019-02-17T00:07:29.344Z,5.35
2019-02-17T00:10:01.507Z,5.36
2019-02-17T00:12:33.062Z,5.33
2019-02-17T00:15:06.885Z,5.33
2019-02-17T00:17:38.531Z,5.32
2019-02-17T00:20:10.157Z,5.34
2019-02-17T00:22:41.773Z,5.32
2019-02-17T00:25:13.321Z,5.31
2019-02-17T00:27:44.842Z,5.28
2019-02-17T00:30:16.354Z,5.20
2019-02-17T00:32:47.928Z,5.14
2019-02-17T00:35:19.618Z,5.13
2019-02-17T00:37:51.192Z,5.13
2019-02-17T00:40:22.821Z,5.17
2019-02-17T00:42:54.358Z,5.16
2019-02-17T00:45:25.960Z,5.13
2019-02-17T00:47:57.523Z,5.13
2019-02-17T00:50:29.051Z,5.18
2019-02-17T00:53:00.630Z,5.23
2019-02-17T00:55:32.177Z,5.28
2019-02-17T00:58:06.654Z,5.32
2019-02-17T01:00:38.263Z,5.38
2019-02-17T01:03:09.866Z,5.41
2019-02-17T01:05:42.635Z,5.38
2019-02-17T01:08:14.237Z,5.28
2019-02-17T01:10:45.790Z,5.13
2019-02-17T01:13:17.299Z,5.05
2019-02-17T01:15:48.885Z,5.03
2019-02-17T01:18:20.444Z,5.02
2019-02-17T01:20:53.027Z,5.04
2019-02-17T01:23:24.567Z,5.07
2019-02-17T01:25:56.100Z,5.04
2019-02-17T01:28:27.635Z,5.12
2019-02-17T01:30:59.160Z,5.19
2019-02-17T01:33:30.707Z,5.28
2019-02-17T01:36:02.302Z,5.30
2019-02-17T01:38:33.878Z,5.29
2019-02-17T01:41:05.612Z,5.29
2019-02-17T01:43:37.228Z,5.26
2019-02-17T01:46:08.876Z,5.17
2019-02-17T01:48:40.460Z,5.19
2019-02-17T01:51:12.089Z,5.22
2019-02-17T01:53:43.678Z,5.29
2019-02-17T01:56:15.289Z,5.22
2019-02-17T01:58:46.951Z,5.16
2019-02-17T02:01:18.625Z,5.19
2019-02-17T02:03:50.129Z,5.22
2019-02-17T02:06:22.634Z,5.31
2019-02-17T02:08:54.143Z,5.37
2019-02-17T02:11:25.745Z,5.43
2019-02-17T02:13:57.359Z,5.48
2019-02-17T02:16:28.936Z,5.56
2019-02-17T02:19:00.994Z,5.57
2019-02-17T02:21:32.512Z,5.60
2019-02-17T02:24:04.300Z,5.63
2019-02-17T02:26:35.816Z,5.63
2019-02-17T02:29:07.355Z,5.62
2019-02-17T02:31:38.937Z,5.64
2019-02-17T02:34:10.567Z,5.68
2019-02-17T02:36:42.141Z,5.70
2019-02-17T02:39:14.145Z,5.74
2019-02-17T02:41:45.665Z,5.78
2019-02-17T02:44:17.254Z,5.80
2019-02-17T02:46:48.792Z,5.82
2019-02-17T02:49:20.299Z,5.85
2019-02-17T02:51:51.876Z,5.75
2019-02-17T02:54:23.395Z,5.74
2019-02-17T02:56:54.921Z,5.65
2019-02-17T02:59:26.500Z,5.49
2019-02-17T03:01:58.100Z,5.45
2019-02-17T03:04:29.750Z,5.33
2019-02-17T03:07:01.818Z,5.29
2019-02-17T03:09:33.461Z,5.23
2019-02-17T03:12:05.045Z,5.17
2019-02-17T03:14:36.657Z,5.03
2019-02-17T03:17:08.207Z,4.98
2019-02-17T03:19:39.728Z,4.86
2019-02-17T03:22:11.272Z,4.89
2019-02-17T03:24:42.936Z,4.83
2019-02-17T03:27:14.605Z,4.75
2019-02-17T03:29:46.169Z,4.64
2019-02-17T03:32:17.769Z,4.58
2019-02-17T03:34:49.398Z,4.48
2019-02-17T03:37:20.951Z,4.43
2019-02-17T03:39:52.579Z,4.50
2019-02-17T03:42:24.139Z,4.55
2019-02-17T03:44:55.891Z,4.46
2019-02-17T03:47:27.644Z,4.34
2019-02-17T03:49:59.182Z,4.30
2019-02-17T03:52:30.800Z,4.26
2019-02-17T03:55:02.328Z,4.21
2019-02-17T03:57:33.910Z,4.24
2019-02-17T04:00:16.400Z,4.26
2019-02-17T04:02:41.403Z,4.28
2019-02-17T04:05:13.016Z,4.23
2019-02-17T04:07:44.553Z,4.14
2019-02-17T04:10:16.068Z,4.15
2019-02-17T04:12:47.677Z,4.16
2019-02-17T04:15:19.355Z,4.05
2019-02-17T04:17:50.946Z,4.01
2019-02-17T04:20:22.566Z,4.06
2019-02-17T04:22:54.091Z,4.04
2019-02-17T04:25:25.811Z,4.03
2019-02-17T04:27:57.359Z,4.03
2019-02-17T04:30:29.817Z,4.03
2019-02-17T04:33:01.653Z,4.10
2019-02-17T04:35:33.164Z,4.11
2019-02-17T04:38:04.704Z,4.01
2019-02-17T04:40:36.241Z,3.95
2019-02-17T04:43:07.813Z,3.87
2019-02-17T04:45:39.522Z,3.82
2019-02-17T04:48:11.221Z,3.69
2019-02-17T04:50:42.820Z,3.70
2019-02-17T04:53:14.347Z,3.76
2019-02-17T04:55:45.865Z,3.84
2019-02-17T04:58:17.473Z,3.73
2019-02-17T05:00:49.998Z,3.61
2019-02-17T05:03:21.991Z,3.54
2019-02-17T05:05:53.665Z,3.40
2019-02-17T05:08:25.197Z,3.38
2019-02-17T05:10:56.811Z,3.38
2019-02-17T05:13:28.401Z,3.39
2019-02-17T05:15:59.921Z,3.45
2019-02-17T05:18:31.441Z,3.46
2019-02-17T05:21:02.973Z,3.44
2019-02-17T05:23:34.598Z,3.48
2019-02-17T05:26:06.234Z,3.48
2019-02-17T05:28:37.817Z,3.51
2019-02-17T05:31:09.554Z,3.53
2019-02-17T05:33:41.081Z,3.48
2019-02-17T05:36:12.624Z,3.42
2019-02-17T05:38:44.202Z,3.42
2019-02-17T05:41:15.808Z,3.35
2019-02-17T05:43:47.339Z,3.28
2019-02-17T05:46:18.869Z,3.20
2019-02-17T05:48:50.526Z,3.25
2019-02-17T05:51:22.052Z,3.21
2019-02-17T05:53:53.571Z,3.20
2019-02-17T05:56:25.070Z,3.27
2019-02-17T05:58:56.586Z,3.34
2019-02-17T06:01:28.112Z,3.36
2019-02-17T06:03:59.621Z,3.21
2019-02-17T06:06:31.141Z,3.22
2019-02-17T06:09:03.100Z,3.28
2019-02-17T06:11:34.619Z,3.29
2019-02-17T06:14:06.130Z,3.31
2019-02-17T06:16:37.654Z,3.38
2019-02-17T06:19:09.155Z,3.43
2019-02-17T06:21:40.669Z,3.49
2019-02-17T06:24:12.222Z,3.50
2019-02-17T06:26:43.807Z,3.49
2019-02-17T06:29:15.329Z,3.42
2019-02-17T06:31:46.855Z,3.46
2019-02-17T06:34:18.373Z,3.53
2019-02-17T06:36:49.912Z,3.55
2019-02-17T06:39:21.422Z,3.57
2019-02-17T06:41:53.025Z,3.69
2019-02-17T06:44:24.578Z,3.81
2019-02-17T06:46:57.375Z,3.86
2019-02-17T06:49:28.970Z,3.88
2019-02-17T06:52:00.484Z,3.87
2019-02-17T06:54:31.982Z,3.81
2019-02-17T06:57:05.139Z,3.84
2019-02-17T06:59:36.660Z,3.96
2019-02-17T07:02:08.147Z,4.08
2019-02-17T07:04:57.008Z,4.21
2019-02-17T07:07:29.075Z,4.33
2019-02-17T07:10:00.687Z,4.42
2019-02-17T07:12:32.206Z,4.44
2019-02-17T07:15:04.561Z,4.42
2019-02-17T07:17:36.074Z,4.53
2019-02-17T07:20:09.651Z,4.66
2019-02-17T07:22:40.824Z,4.80
2019-02-17T07:25:12.406Z,4.81
2019-02-17T07:27:43.919Z,4.88
2019-02-17T07:30:15.442Z,5.04
2019-02-17T07:32:47.003Z,5.15
2019-02-17T07:35:18.501Z,5.28
2019-02-17T07:37:50.015Z,5.28
2019-02-17T07:40:21.543Z,5.40
2019-02-17T07:42:53.134Z,5.56
2019-02-17T07:45:24.635Z,5.68
2019-02-17T07:47:56.153Z,5.76
2019-02-17T07:50:27.672Z,5.84
2019-02-17T07:52:59.202Z,5.98
2019-02-17T07:55:30.729Z,6.11
2019-02-17T07:58:02.319Z,6.27
2019-02-17T08:00:33.836Z,6.38
2019-02-17T08:03:05.355Z,6.51
2019-02-17T08:05:36.862Z,6.57
2019-02-17T08:08:08.376Z,6.69
2019-02-17T08:10:39.894Z,6.76
2019-02-17T08:13:11.393Z,6.89
2019-02-17T08:15:42.912Z,6.98
2019-02-17T08:18:14.427Z,7.05
2019-02-17T08:20:45.953Z,7.16
2019-02-17T08:23:17.466Z,7.29
2019-02-17T08:25:48.988Z,7.41
2019-02-17T08:28:20.487Z,7.55
2019-02-17T08:30:52.002Z,7.64
2019-02-17T08:33:23.495Z,7.78
2019-02-17T08:35:54.993Z,7.81
2019-02-17T08:38:26.496Z,7.90
2019-02-17T08:41:00.747Z,7.99
2019-02-17T08:43:32.543Z,8.13
2019-02-17T08:46:04.653Z,8.20
2019-02-17T08:48:36.213Z,8.27
2019-02-17T08:51:07.732Z,8.40
2019-02-17T08:53:39.232Z,8.51
2019-02-17T08:56:10.754Z,8.62
2019-02-17T08:58:42.335Z,8.67
2019-02-17T09:01:13.861Z,8.78
2019-02-17T09:03:45.378Z,8.81
2019-02-17T09:06:16.968Z,9.05
2019-02-17T09:08:48.467Z,9.08
2019-02-17T09:11:19.984Z,9.16
2019-02-17T09:13:51.570Z,9.24
2019-02-17T09:16:23.084Z,9.43
2019-02-17T09:18:54.597Z,9.61
2019-02-17T09:21:26.102Z,9.66
2019-02-17T09:23:57.732Z,9.75
2019-02-17T09:26:29.753Z,9.91
2019-02-17T09:29:01.418Z,9.87
2019-02-17T09:31:32.936Z,9.98
2019-02-17T09:34:04.461Z,10.09
2019-02-17T09:36:37.039Z,10.19
2019-02-17T09:39:09.705Z,10.38
2019-02-17T09:41:41.222Z,10.58
2019-02-17T09:44:12.752Z,10.70
2019-02-17T09:46:44.266Z,10.69
2019-02-17T09:49:15.773Z,10.71
2019-02-17T09:51:47.294Z,10.79
2019-02-17T09:54:18.803Z,10.92
2019-02-17T09:56:50.444Z,10.96
2019-02-17T09:59:21.993Z,11.05
2019-02-17T10:01:53.510Z,11.16
2019-02-17T10:04:25.028Z,11.07
2019-02-17T10:06:56.554Z,10.84
2019-02-17T10:09:28.048Z,10.76
2019-02-17T10:11:59.695Z,11.11
2019-02-17T10:14:31.341Z,11.31
2019-02-17T10:17:02.864Z,11.15
2019-02-17T10:19:34.398Z,11.22
2019-02-17T10:22:07.580Z,11.13
2019-02-17T10:24:39.108Z,10.99
2019-02-17T10:27:10.673Z,10.97
2019-02-17T10:29:42.203Z,11.09
2019-02-17T10:32:14.788Z,11.03
2019-02-17T10:34:46.319Z,11.07
2019-02-17T10:37:17.849Z,11.13
2019-02-17T10:39:49.450Z,11.19
2019-02-17T10:42:20.977Z,11.47
2019-02-17T10:44:52.645Z,11.62
2019-02-17T10:47:24.169Z,11.90
2019-02-17T10:49:55.765Z,11.87
2019-02-17T10:52:27.274Z,11.74
2019-02-17T10:54:59.876Z,11.77
2019-02-17T10:57:31.402Z,11.67
2019-02-17T11:00:03.002Z,11.67
2019-02-17T11:02:34.504Z,11.56
2019-02-17T11:05:08.429Z,11.52
2019-02-17T11:07:39.999Z,11.71
2019-02-17T11:10:12.830Z,11.82
2019-02-17T11:12:44.358Z,11.69
2019-02-17T11:15:20.608Z,11.73
2019-02-17T11:17:52.097Z,11.67
2019-02-17T11:20:23.641Z,11.62
2019-02-17T11:22:55.205Z,11.65
2019-02-17T11:25:26.721Z,11.65
2019-02-17T11:27:58.256Z,11.53
2019-02-17T11:30:29.754Z,11.45
2019-02-17T11:33:01.355Z,11.66
2019-02-17T11:35:32.973Z,11.58
2019-02-17T11:38:04.500Z,11.50
2019-02-17T11:40:36.093Z,11.78
2019-02-17T11:43:07.626Z,11.97
2019-02-17T11:45:39.131Z,11.87
2019-02-17T11:48:10.650Z,11.82
2019-02-17T11:50:42.187Z,11.87
2019-02-17T11:53:13.790Z,11.93
2019-02-17T11:55:45.322Z,11.80
2019-02-17T11:58:16.841Z,11.84
2019-02-17T12:00:48.371Z,11.85
2019-02-17T12:03:19.877Z,11.94
2019-02-17T12:05:52.472Z,12.15
2019-02-17T12:08:24.007Z,11.99
2019-02-17T12:10:55.605Z,12.08
2019-02-17T12:13:27.139Z,12.23
2019-02-17T12:15:58.649Z,12.17
2019-02-17T12:18:30.219Z,12.21
2019-02-17T12:21:12.411Z,12.33
2019-02-17T12:23:48.353Z,12.55
2019-02-17T12:26:24.208Z,12.55
2019-02-17T12:28:57.358Z,12.50
2019-02-17T12:31:30.747Z,12.52
2019-02-17T12:34:02.270Z,12.47
2019-02-17T12:36:33.789Z,12.50
2019-02-17T12:39:06.219Z,12.69
2019-02-17T12:41:37.749Z,12.61
2019-02-17T12:44:09.302Z,12.62
2019-02-17T12:46:40.836Z,12.56
2019-02-17T12:49:12.422Z,12.35
2019-02-17T12:51:43.946Z,12.45
2019-02-17T12:54:15.554Z,12.40
2019-02-17T12:56:47.074Z,12.49
2019-02-17T12:59:18.598Z,12.66
2019-02-17T13:01:50.125Z,12.63
2019-02-17T13:04:21.708Z,12.64
2019-02-17T13:06:53.219Z,12.77
2019-02-17T13:09:24.743Z,12.76
2019-02-17T13:11:56.336Z,12.65
2019-02-17T13:14:27.866Z,12.85
2019-02-17T13:16:59.379Z,12.98
2019-02-17T13:19:30.888Z,12.86
2019-02-17T13:22:02.461Z,12.85
2019-02-17T13:24:33.997Z,13.04
2019-02-17T13:27:05.510Z,13.21
2019-02-17T13:29:52.998Z,13.41
2019-02-17T13:32:24.503Z,13.36
2019-02-17T13:34:56.032Z,13.47
2019-02-17T13:37:30.119Z,13.46
2019-02-17T13:40:00.966Z,13.56
2019-02-17T13:42:33.568Z,13.59
2019-02-17T13:45:08.665Z,13.58
2019-02-17T13:47:40.190Z,13.59
2019-02-17T13:50:16.843Z,13.60
2019-02-17T13:52:48.353Z,13.55
2019-02-17T13:55:19.856Z,13.61
2019-02-17T13:57:52.415Z,13.66
2019-02-17T14:00:25.185Z,13.22
2019-02-17T14:02:56.724Z,12.91
2019-02-17T14:05:28.294Z,12.95
2019-02-17T14:07:59.920Z,13.01
2019-02-17T14:10:31.447Z,13.22
2019-02-17T14:13:02.979Z,13.40
2019-02-17T14:15:34.485Z,13.50
2019-02-17T14:18:06.071Z,13.56
2019-02-17T14:20:37.588Z,13.57
2019-02-17T14:23:09.168Z,13.59
2019-02-17T14:25:40.929Z,13.37
2019-02-17T14:28:12.468Z,13.38
2019-02-17T14:30:43.994Z,13.46
2019-02-17T14:33:15.529Z,13.52
2019-02-17T14:35:47.044Z,13.58
2019-02-17T14:38:18.576Z,13.43
2019-02-17T14:40:50.116Z,13.01
2019-02-17T14:43:21.762Z,13.22
2019-02-17T14:45:55.857Z,13.32
2019-02-17T14:48:27.636Z,13.40
2019-02-17T14:51:02.251Z,13.42
2019-02-17T14:53:33.840Z,13.45
2019-02-17T14:56:05.373Z,13.46
2019-02-17T14:58:36.898Z,13.50
2019-02-17T15:01:08.539Z,13.49
2019-02-17T15:03:40.110Z,13.38
2019-02-17T15:06:14.341Z,13.03
2019-02-17T15:08:52.037Z,12.75
2019-02-17T15:11:24.510Z,12.74
2019-02-17T15:14:06.561Z,12.79
2019-02-17T15:16:38.163Z,12.87
2019-02-17T15:19:09.914Z,12.89
2019-02-17T15:21:42.661Z,12.84
2019-02-17T15:24:14.186Z,12.77
2019-02-17T15:26:45.922Z,12.72
2019-02-17T15:29:17.599Z,12.73
2019-02-17T15:31:49.395Z,12.68
2019-02-17T15:34:21.034Z,12.64
2019-02-17T15:36:52.534Z,12.65
2019-02-17T15:39:24.066Z,12.64
2019-02-17T15:41:55.569Z,12.60
2019-02-17T15:44:27.141Z,12.57
2019-02-17T15:46:58.695Z,12.55
2019-02-17T15:49:30.220Z,12.54
2019-02-17T15:52:01.748Z,12.54
2019-02-17T15:54:33.277Z,12.53
2019-02-17T15:57:04.783Z,12.50
2019-02-17T15:59:36.285Z,12.45
2019-02-17T16:02:07.804Z,12.40
2019-02-17T16:04:39.327Z,12.35
2019-02-17T16:07:10.929Z,12.31
2019-02-17T16:09:42.435Z,12.25
2019-02-17T16:12:14.086Z,12.19
2019-02-17T16:14:45.604Z,12.11
2019-02-17T16:17:17.129Z,12.03
2019-02-17T16:19:48.681Z,11.99
2019-02-17T16:22:20.271Z,11.94
2019-02-17T16:24:51.784Z,11.89
2019-02-17T16:27:23.416Z,11.85
2019-02-17T16:29:54.943Z,11.81
2019-02-17T16:32:26.464Z,11.77
2019-02-17T16:34:58.003Z,11.70
2019-02-17T16:37:29.589Z,11.64
2019-02-17T16:40:01.116Z,11.58
2019-02-17T16:42:33.909Z,11.53
2019-02-17T16:45:09.684Z,11.47
2019-02-17T16:47:41.393Z,11.41
2019-02-17T16:50:29.472Z,11.32
2019-02-17T16:53:01.051Z,11.28
2019-02-17T16:55:32.575Z,11.22
2019-02-17T16:58:04.204Z,11.14
2019-02-17T17:00:35.785Z,11.05
2019-02-17T17:03:07.312Z,11.00
2019-02-17T17:05:38.859Z,10.93
2019-02-17T17:08:10.398Z,10.84
2019-02-17T17:10:42.619Z,10.72
2019-02-17T17:13:15.714Z,10.59
2019-02-17T17:15:47.241Z,10.46
2019-02-17T17:18:19.788Z,10.40
2019-02-17T17:20:51.661Z,10.35
2019-02-17T17:23:23.235Z,10.32
2019-02-17T17:25:54.763Z,9.89
2019-02-17T17:28:26.290Z,9.71
2019-02-17T17:30:57.885Z,9.47
2019-02-17T17:33:29.927Z,9.42
2019-02-17T17:36:01.581Z,9.31
2019-02-17T17:38:33.202Z,9.38
2019-02-17T17:41:05.965Z,9.32
2019-02-17T17:43:37.894Z,9.39
2019-02-17T17:46:09.530Z,9.38
2019-02-17T17:48:41.107Z,9.48
2019-02-17T17:51:12.906Z,9.49
2019-02-17T17:53:44.547Z,9.39
2019-02-17T17:56:16.191Z,8.94
2019-02-17T17:58:48.366Z,8.86
2019-02-17T18:01:19.862Z,8.91
2019-02-17T18:03:51.408Z,8.91
2019-02-17T18:06:23.023Z,8.91
2019-02-17T18:08:54.795Z,8.99
2019-02-17T18:11:26.354Z,9.04
2019-02-17T18:13:57.840Z,9.05
2019-02-17T18:16:29.346Z,9.05
2019-02-17T18:19:00.967Z,9.03
2019-02-17T18:21:32.461Z,9.03
2019-02-17T18:24:04.053Z,8.95
2019-02-17T18:26:35.640Z,8.94
2019-02-17T18:29:07.165Z,8.98
2019-02-17T18:31:38.700Z,8.97
2019-02-17T18:34:10.224Z,9.01
2019-02-17T18:36:49.546Z,8.97
2019-02-17T18:39:21.078Z,8.90
2019-02-17T18:41:52.578Z,8.82
2019-02-17T18:44:24.077Z,8.81
2019-02-17T18:46:55.581Z,8.77
2019-02-17T18:49:27.404Z,8.66
2019-02-17T18:51:58.931Z,8.53
2019-02-17T18:54:30.517Z,8.40
2019-02-17T18:57:08.345Z,8.35
2019-02-17T18:59:36.538Z,8.07
2019-02-17T19:02:08.032Z,8.09
2019-02-17T19:04:39.571Z,8.11
2019-02-17T19:07:11.160Z,8.14
2019-02-17T19:09:42.713Z,8.16
2019-02-17T19:12:14.212Z,8.12
2019-02-17T19:14:45.729Z,8.04
2019-02-17T19:17:17.370Z,7.97
2019-02-17T19:19:48.966Z,7.87
2019-02-17T19:22:20.545Z,7.88
2019-02-17T19:24:52.058Z,7.86
2019-02-17T19:27:23.666Z,7.92
2019-02-17T19:29:55.183Z,7.96
2019-02-17T19:32:26.702Z,7.97
2019-02-17T19:34:58.241Z,7.95
2019-02-17T19:37:29.742Z,7.95
2019-02-17T19:40:01.262Z,7.96
2019-02-17T19:42:34.085Z,8.00
2019-02-17T19:45:12.437Z,8.00
2019-02-17T19:47:43.971Z,7.96
2019-02-17T19:50:16.497Z,7.77
2019-02-17T19:52:48.050Z,7.71
2019-02-17T19:55:19.581Z,7.60
2019-02-17T19:57:51.121Z,7.58
2019-02-17T20:00:23.155Z,7.46
2019-02-17T20:03:00.310Z,7.44
2019-02-17T20:05:35.257Z,7.36
2019-02-17T20:08:07.202Z,7.29
2019-02-17T20:10:44.002Z,7.26
2019-02-17T20:13:15.583Z,7.25
2019-02-17T20:15:47.155Z,7.18
2019-02-17T20:18:18.678Z,7.16
2019-02-17T20:20:50.180Z,7.09
2019-02-17T20:26:08.019Z,6.95
2019-02-17T20:28:44.618Z,6.81
2019-02-17T20:31:16.181Z,6.77
2019-02-17T20:33:47.796Z,6.71
2019-02-17T20:36:19.326Z,6.77
2019-02-17T20:38:50.846Z,6.78
2019-02-17T20:41:22.342Z,6.78
2019-02-17T20:43:54.043Z,6.77
2019-02-17T20:46:25.595Z,6.79
2019-02-17T20:48:57.191Z,6.76
2019-02-17T20:51:28.756Z,6.69
2019-02-17T20:54:00.333Z,6.58
2019-02-17T20:56:31.922Z,6.54
2019-02-17T20:59:03.492Z,6.54
2019-02-17T21:01:35.136Z,6.46
2019-02-17T21:04:06.670Z,6.33
2019-02-17T21:06:38.304Z,6.33
2019-02-17T21:09:14.752Z,6.28
2019-02-17T21:11:47.777Z,6.30
2019-02-17T21:14:19.310Z,6.29
2019-02-17T21:16:50.937Z,6.22
2019-02-17T21:19:22.550Z,6.15
2019-02-17T21:21:54.058Z,6.14
2019-02-17T21:24:25.610Z,6.10
2019-02-17T21:26:57.658Z,6.07
2019-02-17T21:29:29.190Z,6.03
2019-02-17T21:32:00.861Z,5.80
2019-02-17T21:34:33.339Z,5.72
2019-02-17T21:37:04.866Z,5.52
2019-02-17T21:39:36.370Z,5.61
2019-02-17T21:42:07.895Z,5.65
2019-02-17T21:44:39.445Z,5.74
2019-02-17T21:47:10.979Z,5.81
2019-02-17T21:49:42.515Z,5.80
2019-02-17T21:52:14.019Z,5.58
2019-02-17T21:54:45.552Z,5.64
2019-02-17T21:57:17.080Z,5.74
2019-02-17T21:59:49.558Z,5.79
2019-02-17T22:02:21.108Z,5.81
2019-02-17T22:04:52.669Z,5.76
2019-02-17T22:07:24.184Z,5.68
2019-02-17T22:09:55.882Z,5.67
2019-02-17T22:12:27.387Z,5.58
2019-02-17T22:14:58.909Z,5.45
2019-02-17T22:17:30.446Z,5.51
2019-02-17T22:20:01.980Z,5.47
2019-02-17T22:22:33.651Z,5.43
2019-02-17T22:25:07.372Z,5.42
2019-02-17T22:27:38.888Z,5.38
2019-02-17T22:30:12.976Z,5.29
2019-02-17T22:32:44.580Z,5.28
2019-02-17T22:35:16.095Z,5.23
2019-02-17T22:37:47.630Z,5.20
2019-02-17T22:40:19.145Z,5.14
2019-02-17T22:42:50.732Z,5.11
2019-02-17T22:45:22.325Z,5.11
2019-02-17T22:47:53.847Z,5.08
2019-02-17T22:50:25.434Z,4.88
2019-02-17T22:52:57.028Z,4.83
2019-02-17T22:55:28.622Z,4.87
2019-02-17T22:58:00.123Z,4.88
2019-02-17T23:00:45.905Z,4.82
2019-02-17T23:03:17.583Z,4.80
2019-02-17T23:05:49.123Z,4.70
2019-02-17T23:08:20.620Z,4.77
2019-02-17T23:10:52.224Z,4.67
2019-02-17T23:13:23.884Z,4.71
2019-02-17T23:15:56.375Z,4.80
2019-02-17T23:18:28.037Z,4.86
2019-02-17T23:20:59.553Z,4.85
2019-02-17T23:23:31.151Z,4.78
2019-02-17T23:26:02.743Z,4.71
2019-02-17T23:28:34.266Z,4.67
2019-02-17T23:31:05.782Z,4.58
2019-02-17T23:33:37.298Z,4.50
2019-02-17T23:36:09.897Z,4.16
2019-02-17T23:38:41.478Z,4.25
2019-02-17T23:41:13.027Z,4.24
2019-02-17T23:43:44.606Z,4.04
2019-02-17T23:46:16.230Z,3.90
2019-02-17T23:48:47.741Z,3.96
2019-02-17T23:51:19.257Z,4.02
2019-02-17T23:53:50.790Z,4.10
2019-02-17T23:56:22.291Z,4.10
2019-02-17T23:58:53.806Z,4.14
